Terminal Aerodrome Forecast
Issued by NWS

Home | Current Version | Previous Version | Text Only | Print | Product List | Glossary On
Versions: 1 2 3 4 5 6 7 8 9 10 11 12 13 14 15 16 17 18 19 20 21
526
FTUS41 KPBZ 280539
TAFZZV
TAF
KZZV 280539Z 2806/2906 16003KT P6SM VCSH BKN050
     FM281600 00000KT P6SM VCTS BKN050CB
     FM290300 03002KT 4SM BR BKN040=

USA.gov is the U.S. government's official web portal to all federal, state and local government web resources and services.